Terminal Aerodrome Forecast
Issued by NWS

Current Version | Previous Version | Text Only | Print | Product List | Glossary On
Versions: 1 2 3 4 5 6 7 8 9 10 11 12 13 14
000
FTUS43 KIND 311100
TAFHUF
TAF
KHUF 311130Z 3112/0112 20006KT P6SM BKN090
     FM311700 21008KT P6SM SCT050 OVC080
     FM312300 19006KT 5SM -RA SCT025 OVC050
     FM010200 16003KT 3SM -RASN BR OVC015
     FM010800 10004KT 3SM -RASN BR OVC020=

USA.gov is the U.S. government's official web portal to all federal, state and local government web resources and services.